sensor_id;sensor_type;location;lat;lon;timestamp;pressure;altitude;pressure_sealevel;temperature;humidity
63019;BME280;49105;46.046;10.760;2023-04-03T00:00:14;95441.25;;;6.21;54.09
63019;BME280;49105;46.046;10.760;2023-04-03T00:02:46;95449.13;;;6.21;53.86
63019;BME280;49105;46.046;10.760;2023-04-03T00:05:18;95440.94;;;6.18;53.94
63019;BME280;49105;46.046;10.760;2023-04-03T00:07:43;95446.22;;;6.18;54.01
63019;BME280;49105;46.046;10.760;2023-04-03T00:10:09;95442.53;;;6.19;53.82
63019;BME280;49105;46.046;10.760;2023-04-03T00:12:35;95445.03;;;6.09;54.35
63019;BME280;49105;46.046;10.760;2023-04-03T00:15:00;95449.22;;;6.05;54.49
63019;BME280;49105;46.046;10.760;2023-04-03T00:17:26;95451.34;;;6.08;54.46
63019;BME280;49105;46.046;10.760;2023-04-03T00:19:51;95442.88;;;6.01;54.13
63019;BME280;49105;46.046;10.760;2023-04-03T00:22:26;95444.97;;;5.99;54.21
63019;BME280;49105;46.046;10.760;2023-04-03T00:24:59;95447.88;;;6.02;54.40
63019;BME280;49105;46.046;10.760;2023-04-03T00:27:31;95445.56;;;6.06;54.47
63019;BME280;49105;46.046;10.760;2023-04-03T00:29:56;95444.56;;;6.12;53.96
63019;BME280;49105;46.046;10.760;2023-04-03T00:32:22;95443.72;;;6.06;54.21
63019;BME280;49105;46.046;10.760;2023-04-03T00:34:48;95445.25;;;6.02;54.01
63019;BME280;49105;46.046;10.760;2023-04-03T00:37:17;95440.50;;;5.99;54.37
63019;BME280;49105;46.046;10.760;2023-04-03T00:39:42;95443.88;;;5.94;54.31
63019;BME280;49105;46.046;10.760;2023-04-03T00:42:08;95439.97;;;5.97;54.17
63019;BME280;49105;46.046;10.760;2023-04-03T00:47:13;95441.28;;;6.00;54.32
63019;BME280;49105;46.046;10.760;2023-04-03T00:49:47;95436.25;;;5.93;54.18
63019;BME280;49105;46.046;10.760;2023-04-03T00:52:25;95433.69;;;5.76;54.56
63019;BME280;49105;46.046;10.760;2023-04-03T00:54:54;95437.63;;;5.79;54.68
63019;BME280;49105;46.046;10.760;2023-04-03T00:57:31;95428.44;;;5.76;54.38
63019;BME280;49105;46.046;10.760;2023-04-03T01:00:10;95423.97;;;5.77;54.68
63019;BME280;49105;46.046;10.760;2023-04-03T01:02:39;95426.66;;;5.82;54.27
63019;BME280;49105;46.046;10.760;2023-04-03T01:08:28;95426.59;;;5.77;54.25
63019;BME280;49105;46.046;10.760;2023-04-03T01:10:54;95425.88;;;5.59;54.61
63019;BME280;49105;46.046;10.760;2023-04-03T01:13:32;95426.66;;;5.38;55.41
63019;BME280;49105;46.046;10.760;2023-04-03T01:16:05;95426.25;;;5.24;55.21
63019;BME280;49105;46.046;10.760;2023-04-03T01:18:38;95424.03;;;5.38;55.14
63019;BME280;49105;46.046;10.760;2023-04-03T01:26:28;95423.41;;;5.47;55.21
63019;BME280;49105;46.046;10.760;2023-04-03T01:29:12;95427.03;;;5.46;55.31
63019;BME280;49105;46.046;10.760;2023-04-03T01:32:07;95420.25;;;5.51;55.11
63019;BME280;49105;46.046;10.760;2023-04-03T01:34:33;95420.50;;;5.49;54.92
63019;BME280;49105;46.046;10.760;2023-04-03T01:37:04;95421.78;;;5.46;54.75
63019;BME280;49105;46.046;10.760;2023-04-03T01:39:36;95422.34;;;5.48;54.79
63019;BME280;49105;46.046;10.760;2023-04-03T01:42:01;95420.78;;;5.47;54.51
63019;BME280;49105;46.046;10.760;2023-04-03T01:44:37;95419.72;;;5.48;54.70
63019;BME280;49105;46.046;10.760;2023-04-03T01:47:12;95415.56;;;5.53;54.59
63019;BME280;49105;46.046;10.760;2023-04-03T01:49:44;95417.63;;;5.51;54.64
63019;BME280;49105;46.046;10.760;2023-04-03T01:52:09;95411.72;;;5.38;55.21
63019;BME280;49105;46.046;10.760;2023-04-03T01:54:44;95407.38;;;5.05;55.38
63019;BME280;49105;46.046;10.760;2023-04-03T01:57:09;95407.69;;;4.87;55.93
63019;BME280;49105;46.046;10.760;2023-04-03T01:59:44;95413.41;;;4.84;55.99
63019;BME280;49105;46.046;10.760;2023-04-03T02:02:16;95409.31;;;4.93;55.84
63019;BME280;49105;46.046;10.760;2023-04-03T02:04:41;95408.09;;;5.01;55.68
63019;BME280;49105;46.046;10.760;2023-04-03T02:07:16;95405.00;;;5.04;55.54
63019;BME280;49105;46.046;10.760;2023-04-03T02:09:41;95402.06;;;5.00;55.72
63019;BME280;49105;46.046;10.760;2023-04-03T02:12:19;95398.25;;;5.08;55.42
63019;BME280;49105;46.046;10.760;2023-04-03T02:14:51;95403.47;;;5.08;55.72
63019;BME280;49105;46.046;10.760;2023-04-03T02:17:22;95401.72;;;5.13;55.63
63019;BME280;49105;46.046;10.760;2023-04-03T02:19:48;95407.22;;;5.12;55.13
63019;BME280;49105;46.046;10.760;2023-04-03T02:22:19;95394.25;;;5.05;55.44
63019;BME280;49105;46.046;10.760;2023-04-03T02:24:57;95397.22;;;4.70;56.23
63019;BME280;49105;46.046;10.760;2023-04-03T02:27:29;95398.81;;;4.54;56.65
63019;BME280;49105;46.046;10.760;2023-04-03T02:29:54;95393.84;;;4.53;56.45
63019;BME280;49105;46.046;10.760;2023-04-03T02:32:32;95392.78;;;4.54;56.69
63019;BME280;49105;46.046;10.760;2023-04-03T02:35:08;95394.22;;;4.61;56.54
63019;BME280;49105;46.046;10.760;2023-04-03T02:37:33;95388.16;;;4.61;56.54
63019;BME280;49105;46.046;10.760;2023-04-03T02:40:08;95389.84;;;4.50;56.84
63019;BME280;49105;46.046;10.760;2023-04-03T02:45:55;95395.22;;;4.60;56.66
63019;BME280;49105;46.046;10.760;2023-04-03T02:48:33;95387.22;;;4.67;56.21
63019;BME280;49105;46.046;10.760;2023-04-03T02:51:05;95385.44;;;4.72;55.98
63019;BME280;49105;46.046;10.760;2023-04-03T02:53:40;95387.34;;;4.77;56.19
63019;BME280;49105;46.046;10.760;2023-04-03T02:56:11;95396.53;;;4.58;56.32
63019;BME280;49105;46.046;10.760;2023-04-03T02:58:43;95388.81;;;4.34;56.81
63019;BME280;49105;46.046;10.760;2023-04-03T03:01:18;95392.41;;;4.28;57.50
63019;BME280;49105;46.046;10.760;2023-04-03T03:03:50;95380.03;;;4.40;57.09
63019;BME280;49105;46.046;10.760;2023-04-03T03:06:16;95385.41;;;4.51;56.59
63019;BME280;49105;46.046;10.760;2023-04-03T03:08:43;95382.63;;;4.57;56.43
63019;BME280;49105;46.046;10.760;2023-04-03T03:11:15;95378.41;;;4.56;56.69
63019;BME280;49105;46.046;10.760;2023-04-03T03:13:40;95378.66;;;4.55;56.43
63019;BME280;49105;46.046;10.760;2023-04-03T03:16:07;95373.81;;;4.30;56.88
63019;BME280;49105;46.046;10.760;2023-04-03T03:18:32;95379.69;;;4.03;57.39
63019;BME280;49105;46.046;10.760;2023-04-03T03:21:00;95381.34;;;3.92;57.72
63019;BME280;49105;46.046;10.760;2023-04-03T03:23:30;95372.47;;;3.93;57.71
63019;BME280;49105;46.046;10.760;2023-04-03T03:26:09;95372.06;;;4.02;57.74
63019;BME280;49105;46.046;10.760;2023-04-03T03:28:41;95367.22;;;4.10;57.44
63019;BME280;49105;46.046;10.760;2023-04-03T03:31:09;95363.91;;;4.15;57.18
63019;BME280;49105;46.046;10.760;2023-04-03T03:33:35;95366.03;;;4.18;57.24
63019;BME280;49105;46.046;10.760;2023-04-03T03:36:01;95369.31;;;4.08;57.24
63019;BME280;49105;46.046;10.760;2023-04-03T03:38:29;95362.00;;;3.93;57.63
63019;BME280;49105;46.046;10.760;2023-04-03T03:41:04;95367.81;;;3.95;57.81
63019;BME280;49105;46.046;10.760;2023-04-03T03:43:29;95364.22;;;4.02;57.63
63019;BME280;49105;46.046;10.760;2023-04-03T03:45:59;95366.91;;;4.07;57.64
63019;BME280;49105;46.046;10.760;2023-04-03T03:48:31;95370.66;;;4.11;57.40
63019;BME280;49105;46.046;10.760;2023-04-03T03:51:06;95367.41;;;4.20;57.10
63019;BME280;49105;46.046;10.760;2023-04-03T03:53:31;95369.53;;;4.23;57.08
63019;BME280;49105;46.046;10.760;2023-04-03T03:56:03;95365.25;;;4.17;57.31
63019;BME280;49105;46.046;10.760;2023-04-03T03:58:29;95364.94;;;4.14;57.23
63019;BME280;49105;46.046;10.760;2023-04-03T04:01:05;95373.13;;;4.17;57.24
63019;BME280;49105;46.046;10.760;2023-04-03T04:03:37;95376.13;;;4.26;57.03
63019;BME280;49105;46.046;10.760;2023-04-03T04:06:09;95378.75;;;4.26;56.83
63019;BME280;49105;46.046;10.760;2023-04-03T04:08:41;95381.50;;;4.03;57.40
63019;BME280;49105;46.046;10.760;2023-04-03T04:11:16;95381.81;;;3.89;57.39
63019;BME280;49105;46.046;10.760;2023-04-03T04:13:42;95389.50;;;3.79;57.80
63019;BME280;49105;46.046;10.760;2023-04-03T04:16:13;95385.28;;;3.78;57.78
63019;BME280;49105;46.046;10.760;2023-04-03T04:22:07;95385.28;;;3.78;57.86
63019;BME280;49105;46.046;10.760;2023-04-03T04:24:32;95375.63;;;3.79;57.63
63019;BME280;49105;46.046;10.760;2023-04-03T04:27:07;95372.47;;;3.93;57.42
63019;BME280;49105;46.046;10.760;2023-04-03T04:29:35;95378.94;;;3.74;57.96
63019;BME280;49105;46.046;10.760;2023-04-03T04:32:03;95385.41;;;3.55;58.20
63019;BME280;49105;46.046;10.760;2023-04-03T04:34:29;95385.41;;;3.55;58.37
63019;BME280;49105;46.046;10.760;2023-04-03T04:37:03;95387.31;;;3.59;58.37
63019;BME280;49105;46.046;10.760;2023-04-03T04:39:32;95390.13;;;3.69;57.87
63019;BME280;49105;46.046;10.760;2023-04-03T04:41:58;95385.22;;;3.73;57.98
63019;BME280;49105;46.046;10.760;2023-04-03T04:44:24;95387.44;;;3.81;57.63
63019;BME280;49105;46.046;10.760;2023-04-03T04:46:52;95391.50;;;3.89;57.45
63019;BME280;49105;46.046;10.760;2023-04-03T04:49:18;95387.31;;;3.88;57.45
63019;BME280;49105;46.046;10.760;2023-04-03T04:51:53;95389.41;;;3.74;57.69
63019;BME280;49105;46.046;10.760;2023-04-03T04:54:31;95388.44;;;3.63;57.99
63019;BME280;49105;46.046;10.760;2023-04-03T04:57:05;95394.00;;;3.38;58.49
63019;BME280;49105;46.046;10.760;2023-04-03T04:59:31;95394.59;;;3.29;58.91
63019;BME280;49105;46.046;10.760;2023-04-03T05:01:56;95393.78;;;3.28;59.02
63019;BME280;49105;46.046;10.760;2023-04-03T05:04:22;95393.09;;;3.33;58.68
63019;BME280;49105;46.046;10.760;2023-04-03T05:06:56;95395.25;;;3.36;58.82
63019;BME280;49105;46.046;10.760;2023-04-03T05:09:22;95396.81;;;3.48;58.24
63019;BME280;49105;46.046;10.760;2023-04-03T05:11:53;95390.50;;;3.61;58.07
63019;BME280;49105;46.046;10.760;2023-04-03T05:14:28;95403.81;;;3.60;57.98
63019;BME280;49105;46.046;10.760;2023-04-03T05:16:58;95402.72;;;3.44;58.48
63019;BME280;49105;46.046;10.760;2023-04-03T05:19:29;95401.91;;;3.55;58.28
63019;BME280;49105;46.046;10.760;2023-04-03T05:22:04;95396.63;;;3.67;58.03
63019;BME280;49105;46.046;10.760;2023-04-03T05:24:29;95399.31;;;3.72;57.90
63019;BME280;49105;46.046;10.760;2023-04-03T05:27:01;95402.97;;;3.71;57.98
63019;BME280;49105;46.046;10.760;2023-04-03T05:29:26;95403.69;;;3.66;58.14
63019;BME280;49105;46.046;10.760;2023-04-03T05:31:55;95399.13;;;3.62;58.14
63019;BME280;49105;46.046;10.760;2023-04-03T05:34:21;95407.41;;;3.42;58.65
63019;BME280;49105;46.046;10.760;2023-04-03T05:36:55;95400.25;;;3.37;58.72
63019;BME280;49105;46.046;10.760;2023-04-03T05:39:30;95403.53;;;3.44;58.63
63019;BME280;49105;46.046;10.760;2023-04-03T05:41:57;95395.22;;;3.47;58.40
63019;BME280;49105;46.046;10.760;2023-04-03T05:44:22;95395.63;;;3.56;58.43
63019;BME280;49105;46.046;10.760;2023-04-03T05:46:51;95392.31;;;3.61;58.34
63019;BME280;49105;46.046;10.760;2023-04-03T05:49:17;95404.00;;;3.70;58.17
63019;BME280;49105;46.046;10.760;2023-04-03T05:51:43;95401.56;;;3.80;58.05
63019;BME280;49105;46.046;10.760;2023-04-03T05:54:23;95405.56;;;3.54;58.44
63019;BME280;49105;46.046;10.760;2023-04-03T05:56:58;95400.00;;;3.51;58.54
63019;BME280;49105;46.046;10.760;2023-04-03T05:59:32;95399.72;;;3.64;58.45
63019;BME280;49105;46.046;10.760;2023-04-03T06:01:57;95399.19;;;3.79;58.18
63019;BME280;49105;46.046;10.760;2023-04-03T06:04:29;95402.06;;;3.65;58.29
63019;BME280;49105;46.046;10.760;2023-04-03T06:07:00;95397.78;;;3.59;58.43
63019;BME280;49105;46.046;10.760;2023-04-03T06:09:38;95392.41;;;3.66;58.24
63019;BME280;49105;46.046;10.760;2023-04-03T06:12:11;95391.41;;;3.67;58.31
63019;BME280;49105;46.046;10.760;2023-04-03T06:14:39;95390.34;;;3.68;58.37
63019;BME280;49105;46.046;10.760;2023-04-03T06:17:05;95390.91;;;3.70;58.54
63019;BME280;49105;46.046;10.760;2023-04-03T06:19:38;95392.47;;;4.00;58.12
63019;BME280;49105;46.046;10.760;2023-04-03T06:22:12;95389.63;;;4.18;57.87
63019;BME280;49105;46.046;10.760;2023-04-03T06:24:44;95392.22;;;4.01;58.35
63019;BME280;49105;46.046;10.760;2023-04-03T06:27:14;95390.59;;;4.12;58.62
63019;BME280;49105;46.046;10.760;2023-04-03T06:29:45;95386.22;;;4.34;58.35
63019;BME280;49105;46.046;10.760;2023-04-03T06:32:17;95393.41;;;4.61;58.36
63019;BME280;49105;46.046;10.760;2023-04-03T06:34:42;95389.31;;;4.87;57.77
63019;BME280;49105;46.046;10.760;2023-04-03T06:37:20;95389.13;;;4.93;57.35
63019;BME280;49105;46.046;10.760;2023-04-03T06:39:55;95396.81;;;5.00;57.59
63019;BME280;49105;46.046;10.760;2023-04-03T06:42:21;95386.66;;;5.04;57.61
63019;BME280;49105;46.046;10.760;2023-04-03T06:44:53;95387.81;;;5.13;57.67
63019;BME280;49105;46.046;10.760;2023-04-03T06:47:18;95394.72;;;5.19;57.80
63019;BME280;49105;46.046;10.760;2023-04-03T06:49:49;95378.59;;;5.32;57.49
63019;BME280;49105;46.046;10.760;2023-04-03T06:52:15;95374.88;;;5.55;57.02
63019;BME280;49105;46.046;10.760;2023-04-03T06:54:41;95373.28;;;5.76;57.14
63019;BME280;49105;46.046;10.760;2023-04-03T06:57:16;95373.66;;;5.90;56.91
63019;BME280;49105;46.046;10.760;2023-04-03T06:59:47;95380.34;;;5.97;56.65
63019;BME280;49105;46.046;10.760;2023-04-03T07:02:23;95376.72;;;6.09;56.88
63019;BME280;49105;46.046;10.760;2023-04-03T07:04:52;95363.66;;;6.14;56.65
63019;BME280;49105;46.046;10.760;2023-04-03T07:07:21;95355.88;;;6.29;56.15
63019;BME280;49105;46.046;10.760;2023-04-03T07:09:47;95358.63;;;6.44;55.73
63019;BME280;49105;46.046;10.760;2023-04-03T07:12:16;95355.81;;;6.56;55.86
63019;BME280;49105;46.046;10.760;2023-04-03T07:14:41;95360.84;;;6.63;55.19
63019;BME280;49105;46.046;10.760;2023-04-03T07:17:07;95353.78;;;6.68;55.07
63019;BME280;49105;46.046;10.760;2023-04-03T07:19:33;95338.84;;;6.79;55.24
63019;BME280;49105;46.046;10.760;2023-04-03T07:22:08;95357.31;;;6.94;54.64
63019;BME280;49105;46.046;10.760;2023-04-03T07:24:34;95338.69;;;7.06;54.48
63019;BME280;49105;46.046;10.760;2023-04-03T07:27:09;95341.09;;;7.13;54.40
63019;BME280;49105;46.046;10.760;2023-04-03T07:29:44;95343.22;;;7.16;54.29
63019;BME280;49105;46.046;10.760;2023-04-03T07:35:31;95326.41;;;7.32;54.21
63019;BME280;49105;46.046;10.760;2023-04-03T07:37:56;95321.47;;;7.41;53.77
63019;BME280;49105;46.046;10.760;2023-04-03T07:40:35;95324.88;;;7.52;53.88
63019;BME280;49105;46.046;10.760;2023-04-03T07:43:07;95324.88;;;7.57;53.29
63019;BME280;49105;46.046;10.760;2023-04-03T07:45:36;95326.22;;;7.64;53.15
63019;BME280;49105;46.046;10.760;2023-04-03T07:48:02;95324.69;;;7.74;52.95
63019;BME280;49105;46.046;10.760;2023-04-03T07:50:30;95314.41;;;7.82;52.72
63019;BME280;49105;46.046;10.760;2023-04-03T07:52:56;95314.41;;;7.92;52.42
63019;BME280;49105;46.046;10.760;2023-04-03T07:55:25;95307.28;;;8.08;52.22
63019;BME280;49105;46.046;10.760;2023-04-03T07:57:54;95297.00;;;8.12;51.81
63019;BME280;49105;46.046;10.760;2023-04-03T08:00:26;95307.03;;;8.20;52.15
63019;BME280;49105;46.046;10.760;2023-04-03T08:02:58;95302.78;;;8.29;51.31
63019;BME280;49105;46.046;10.760;2023-04-03T08:05:29;95302.00;;;8.34;51.44
63019;BME280;49105;46.046;10.760;2023-04-03T08:08:05;95297.78;;;8.43;51.34
63019;BME280;49105;46.046;10.760;2023-04-03T08:10:31;95294.06;;;8.54;51.18
63019;BME280;49105;46.046;10.760;2023-04-03T08:12:56;95293.78;;;8.66;50.66
63019;BME280;49105;46.046;10.760;2023-04-03T08:15:22;95293.25;;;8.74;50.60
63019;BME280;49105;46.046;10.760;2023-04-03T08:17:48;95281.59;;;8.85;50.52
63019;BME280;49105;46.046;10.760;2023-04-03T08:20:20;95288.41;;;8.97;50.41
63019;BME280;49105;46.046;10.760;2023-04-03T08:22:45;95287.84;;;9.05;49.73
63019;BME280;49105;46.046;10.760;2023-04-03T08:25:17;95268.78;;;9.13;49.41
63019;BME280;49105;46.046;10.760;2023-04-03T08:27:52;95273.00;;;9.19;49.27
63019;BME280;49105;46.046;10.760;2023-04-03T08:30:24;95266.59;;;9.30;49.70
63019;BME280;49105;46.046;10.760;2023-04-03T08:32:50;95258.59;;;9.40;49.71
63019;BME280;49105;46.046;10.760;2023-04-03T08:35:25;95256.97;;;9.50;49.24
63019;BME280;49105;46.046;10.760;2023-04-03T08:37:56;95254.81;;;9.57;48.63
63019;BME280;49105;46.046;10.760;2023-04-03T08:40:28;95248.88;;;9.70;48.76
63019;BME280;49105;46.046;10.760;2023-04-03T08:45:52;95241.31;;;9.92;48.17
63019;BME280;49105;46.046;10.760;2023-04-03T08:48:36;95234.88;;;10.04;48.24
63019;BME280;49105;46.046;10.760;2023-04-03T08:51:20;95228.94;;;10.17;47.86
63019;BME280;49105;46.046;10.760;2023-04-03T08:53:58;95229.25;;;10.39;46.61
63019;BME280;49105;46.046;10.760;2023-04-03T08:56:27;95226.28;;;10.70;46.37
63019;BME280;49105;46.046;10.760;2023-04-03T08:58:58;95219.16;;;10.89;44.41
63019;BME280;49105;46.046;10.760;2023-04-03T09:01:43;95212.59;;;11.06;44.67
63019;BME280;49105;46.046;10.760;2023-04-03T09:04:16;95210.81;;;11.20;43.13
63019;BME280;49105;46.046;10.760;2023-04-03T09:06:45;95205.88;;;11.32;43.11
63019;BME280;49105;46.046;10.760;2023-04-03T09:09:31;95194.56;;;11.46;41.68
63019;BME280;49105;46.046;10.760;2023-04-03T09:23:42;95175.59;;;12.04;40.04
63019;BME280;49105;46.046;10.760;2023-04-03T09:26:14;95169.53;;;12.17;38.66
63019;BME280;49105;46.046;10.760;2023-04-03T09:28:42;95167.78;;;12.26;38.09
63019;BME280;49105;46.046;10.760;2023-04-03T09:34:01;95161.88;;;12.43;38.33
63019;BME280;49105;46.046;10.760;2023-04-03T09:37:00;95161.38;;;12.55;36.99
63019;BME280;49105;46.046;10.760;2023-04-03T09:39:32;95155.09;;;12.64;36.57
63019;BME280;49105;46.046;10.760;2023-04-03T09:47:27;95155.91;;;12.87;36.99
63019;BME280;49105;46.046;10.760;2023-04-03T09:52:41;95138.59;;;12.90;36.40
63019;BME280;49105;46.046;10.760;2023-04-03T09:57:41;95132.97;;;13.05;34.63
63019;BME280;49105;46.046;10.760;2023-04-03T10:02:58;95129.09;;;13.11;35.14
63019;BME280;49105;46.046;10.760;2023-04-03T10:10:47;95121.47;;;13.32;35.19
63019;BME280;49105;46.046;10.760;2023-04-03T10:13:18;95124.03;;;13.37;35.55
63019;BME280;49105;46.046;10.760;2023-04-03T10:16:07;95104.19;;;13.44;34.16
63019;BME280;49105;46.046;10.760;2023-04-03T10:21:32;95101.03;;;13.64;34.13
63019;BME280;49105;46.046;10.760;2023-04-03T10:26:56;95082.38;;;13.86;33.73
63019;BME280;49105;46.046;10.760;2023-04-03T10:29:38;95088.81;;;13.94;33.81
63019;BME280;49105;46.046;10.760;2023-04-03T10:32:35;95072.41;;;14.01;33.42
63019;BME280;49105;46.046;10.760;2023-04-03T10:35:25;95082.91;;;14.06;33.12
63019;BME280;49105;46.046;10.760;2023-04-03T10:38:20;95062.75;;;14.13;33.66
63019;BME280;49105;46.046;10.760;2023-04-03T10:40:57;95067.75;;;14.15;33.09
63019;BME280;49105;46.046;10.760;2023-04-03T10:47:07;95075.63;;;14.20;32.97
63019;BME280;49105;46.046;10.760;2023-04-03T10:53:12;95047.41;;;14.19;28.50
63019;BME280;49105;46.046;10.760;2023-04-03T10:58:44;95039.31;;;14.24;28.21
63019;BME280;49105;46.046;10.760;2023-04-03T11:01:19;95039.31;;;14.24;29.29
63019;BME280;49105;46.046;10.760;2023-04-03T11:03:58;95036.34;;;14.43;29.68
63019;BME280;49105;46.046;10.760;2023-04-03T11:06:47;95035.94;;;14.58;29.36
63019;BME280;49105;46.046;10.760;2023-04-03T11:09:27;95024.19;;;14.59;30.42
63019;BME280;49105;46.046;10.760;2023-04-03T11:12:21;95025.47;;;14.71;30.33
63019;BME280;49105;46.046;10.760;2023-04-03T11:14:56;95019.97;;;14.67;29.02
63019;BME280;49105;46.046;10.760;2023-04-03T11:17:38;95007.28;;;14.73;29.25
63019;BME280;49105;46.046;10.760;2023-04-03T11:22:52;94990.03;;;14.79;28.32
63019;BME280;49105;46.046;10.760;2023-04-03T11:25:23;94992.69;;;14.87;26.83
63019;BME280;49105;46.046;10.760;2023-04-03T11:28:04;94993.47;;;14.97;26.73
63019;BME280;49105;46.046;10.760;2023-04-03T11:35:44;94965.69;;;15.15;27.90
63019;BME280;49105;46.046;10.760;2023-04-03T11:38:21;94971.78;;;15.24;28.09
63019;BME280;49105;46.046;10.760;2023-04-03T11:40:51;94962.22;;;15.23;28.26
63019;BME280;49105;46.046;10.760;2023-04-03T11:43:29;94965.66;;;15.32;28.67
63019;BME280;49105;46.046;10.760;2023-04-03T11:45:56;94960.78;;;15.34;28.80
63019;BME280;49105;46.046;10.760;2023-04-03T11:48:45;94946.34;;;15.35;28.38
63019;BME280;49105;46.046;10.760;2023-04-03T11:53:42;94945.88;;;15.33;27.08
63019;BME280;49105;46.046;10.760;2023-04-03T12:01:53;94941.38;;;15.63;27.83
63019;BME280;49105;46.046;10.760;2023-04-03T12:04:24;94951.41;;;15.67;27.03
63019;BME280;49105;46.046;10.760;2023-04-03T12:06:54;94952.88;;;15.55;26.85
63019;BME280;49105;46.046;10.760;2023-04-03T12:09:34;94932.75;;;15.58;26.59
63019;BME280;49105;46.046;10.760;2023-04-03T12:12:39;94925.28;;;15.51;25.94
63019;BME280;49105;46.046;10.760;2023-04-03T12:15:38;94924.13;;;15.61;26.78
63019;BME280;49105;46.046;10.760;2023-04-03T12:24:36;94913.50;;;15.52;26.14
63019;BME280;49105;46.046;10.760;2023-04-03T12:35:23;94898.69;;;15.72;27.06
63019;BME280;49105;46.046;10.760;2023-04-03T12:38:14;94906.31;;;15.82;26.71
63019;BME280;49105;46.046;10.760;2023-04-03T12:46:11;94887.19;;;16.01;26.91
63019;BME280;49105;46.046;10.760;2023-04-03T12:48:57;94892.34;;;16.06;27.01
63019;BME280;49105;46.046;10.760;2023-04-03T12:51:39;94894.53;;;16.04;27.12
63019;BME280;49105;46.046;10.760;2023-04-03T12:54:18;94890.00;;;16.05;27.19
63019;BME280;49105;46.046;10.760;2023-04-03T12:57:20;94893.59;;;16.09;27.15
63019;BME280;49105;46.046;10.760;2023-04-03T12:59:47;94878.28;;;16.18;27.18
63019;BME280;49105;46.046;10.760;2023-04-03T13:02:30;94882.63;;;16.23;27.39
63019;BME280;49105;46.046;10.760;2023-04-03T13:05:09;94878.22;;;16.27;27.51
63019;BME280;49105;46.046;10.760;2023-04-03T13:07:40;94874.63;;;16.23;26.06
63019;BME280;49105;46.046;10.760;2023-04-03T13:10:16;94883.16;;;16.16;25.95
63019;BME280;49105;46.046;10.760;2023-04-03T13:12:57;94878.59;;;16.17;26.27
63019;BME280;49105;46.046;10.760;2023-04-03T13:15:44;94879.84;;;16.19;26.42
63019;BME280;49105;46.046;10.760;2023-04-03T13:21:10;94883.63;;;16.18;26.78
63019;BME280;49105;46.046;10.760;2023-04-03T13:23:50;94877.88;;;16.28;27.78
63019;BME280;49105;46.046;10.760;2023-04-03T13:26:28;94872.72;;;16.23;29.28
63019;BME280;49105;46.046;10.760;2023-04-03T13:28:57;94870.19;;;16.27;30.53
63019;BME280;49105;46.046;10.760;2023-04-03T13:31:32;94861.97;;;16.32;31.98
63019;BME280;49105;46.046;10.760;2023-04-03T13:34:17;94865.00;;;16.30;33.44
63019;BME280;49105;46.046;10.760;2023-04-03T13:37:00;94856.38;;;16.25;34.75
63019;BME280;49105;46.046;10.760;2023-04-03T13:39:41;94869.50;;;16.18;35.29
63019;BME280;49105;46.046;10.760;2023-04-03T13:42:25;94861.72;;;16.04;36.38
63019;BME280;49105;46.046;10.760;2023-04-03T13:45:11;94882.91;;;16.09;36.46
63019;BME280;49105;46.046;10.760;2023-04-03T13:47:51;94880.47;;;16.16;36.71
63019;BME280;49105;46.046;10.760;2023-04-03T13:50:21;94879.25;;;16.13;37.06
63019;BME280;49105;46.046;10.760;2023-04-03T13:53:12;94891.06;;;15.83;37.56
63019;BME280;49105;46.046;10.760;2023-04-03T13:58:26;94875.75;;;15.42;38.67
63019;BME280;49105;46.046;10.760;2023-04-03T14:03:29;94870.63;;;15.66;38.96
63019;BME280;49105;46.046;10.760;2023-04-03T14:05:59;94878.75;;;15.70;38.87
63019;BME280;49105;46.046;10.760;2023-04-03T14:08:26;94873.75;;;15.68;39.15
63019;BME280;49105;46.046;10.760;2023-04-03T14:10:52;94876.28;;;15.65;39.18
63019;BME280;49105;46.046;10.760;2023-04-03T14:13:29;94877.66;;;15.62;39.36
63019;BME280;49105;46.046;10.760;2023-04-03T14:15:55;94889.66;;;15.56;39.53
63019;BME280;49105;46.046;10.760;2023-04-03T14:18:20;94886.69;;;15.49;39.85
63019;BME280;49105;46.046;10.760;2023-04-03T14:20:52;94873.06;;;15.42;40.22
63019;BME280;49105;46.046;10.760;2023-04-03T14:23:17;94898.81;;;15.37;40.46
63019;BME280;49105;46.046;10.760;2023-04-03T14:25:43;94898.53;;;15.30;40.28
63019;BME280;49105;46.046;10.760;2023-04-03T14:28:20;94887.13;;;15.21;40.99
63019;BME280;49105;46.046;10.760;2023-04-03T14:30:56;94884.16;;;15.14;40.94
63019;BME280;49105;46.046;10.760;2023-04-03T14:33:33;94900.81;;;15.11;41.03
63019;BME280;49105;46.046;10.760;2023-04-03T14:36:23;94884.66;;;15.07;41.60
63019;BME280;49105;46.046;10.760;2023-04-03T14:38:57;94899.88;;;15.07;41.59
63019;BME280;49105;46.046;10.760;2023-04-03T14:41:32;94899.69;;;15.12;41.89
63019;BME280;49105;46.046;10.760;2023-04-03T14:44:02;94906.69;;;15.25;41.74
63019;BME280;49105;46.046;10.760;2023-04-03T14:46:37;94902.47;;;15.24;41.22
63019;BME280;49105;46.046;10.760;2023-04-03T14:49:33;94901.06;;;15.27;41.53
63019;BME280;49105;46.046;10.760;2023-04-03T14:51:58;94901.53;;;15.29;41.47
63019;BME280;49105;46.046;10.760;2023-04-03T14:54:24;94909.56;;;15.20;41.51
63019;BME280;49105;46.046;10.760;2023-04-03T14:57:00;94908.69;;;14.99;41.75
63019;BME280;49105;46.046;10.760;2023-04-03T14:59:27;94904.59;;;14.93;42.00
63019;BME280;49105;46.046;10.760;2023-04-03T15:01:53;94904.31;;;14.94;42.22
63019;BME280;49105;46.046;10.760;2023-04-03T15:04:21;94914.34;;;14.88;42.53
63019;BME280;49105;46.046;10.760;2023-04-03T15:06:53;94923.44;;;14.87;42.68
63019;BME280;49105;46.046;10.760;2023-04-03T15:11:54;94921.91;;;14.52;42.53
63019;BME280;49105;46.046;10.760;2023-04-03T15:14:20;94931.75;;;14.17;43.54
63019;BME280;49105;46.046;10.760;2023-04-03T15:16:46;94938.72;;;13.86;43.63
63019;BME280;49105;46.046;10.760;2023-04-03T15:19:12;94931.63;;;13.64;44.36
63019;BME280;49105;46.046;10.760;2023-04-03T15:21:38;94942.00;;;13.75;44.43
63019;BME280;49105;46.046;10.760;2023-04-03T15:24:04;94929.53;;;14.01;44.64